22:45
Airports
Links
Donate
Help keep this website running!
PayPal
Bitcoin
METAR
BGJN 222150Z 16009KT 9999 -DZ SCT011 BKN030 BKN050 04/02 Q1006
Current Weather Conditions at BGJN
MVFR 21:50:00 22-08-17
Altimeter:29.70 hg
Temp:4.0°c 39°f
Dew point:2.0°c 36°f
Wind:9 knots, 10.4 mph, 5 m/s, from 160°
Visibility:6.21 statute miles
5000(BKN) Broken
3000(BKN) Broken
1100(SCT) Scattered
Past METAR reports
MVFR 20:50:00 22-08-17
Altimeter:29.68 hg
Temp:4.0°c 39°f
Dew point:2.0°c 36°f
Wind:8 knots, 9.2 mph, 4 m/s, from 190°
Visibility:6.21 statute miles
5000(BKN) Broken
2400(BKN) Broken
1700(SCT) Scattered
BGJN 222050Z 19008KT 9999 -DZ SCT017 BKN024 BKN050 04/02 Q1005
MVFR 19:50:00 22-08-17
Altimeter:29.62 hg
Temp:4.0°c 39°f
Dew point:2.0°c 36°f
Wind:6 knots, 6.9 mph, 3 m/s, from 190°
Visibility:6.21 statute miles
2400(BKN) Broken
1700(BKN) Broken
BGJN 221950Z 19006KT 9999 -RA BKN017 BKN024 04/02 Q1003
MVFR 18:50:00 22-08-17
Altimeter:29.59 hg
Temp:4.0°c 39°f
Dew point:2.0°c 36°f
Wind:8 knots, 9.2 mph, 4 m/s, from 220°
Visibility:6.21 statute miles
2200(BKN) Broken
BGJN 221850Z 22008KT 9999 -RA BKN022 04/02 Q1002
MVFR 17:50:00 22-08-17
Altimeter:29.56 hg
Temp:6.0°c 43°f
Dew point:0.0°c 32°f
Wind:7 knots, 8.1 mph, 4 m/s, from 220°
Visibility:6.21 statute miles
2900(BKN) Broken
BGJN 221750Z 22007KT 180V240 9999 BKN029 06/M00 Q1001
MVFR 16:50:00 22-08-17
Altimeter:29.56 hg
Temp:6.0°c 43°f
Dew point:-1.0°c 30°f
Wind:7 knots, 8.1 mph, 4 m/s, from 200°
Visibility:6.21 statute miles
3000(BKN) Broken
BGJN 221650Z 20007KT 9999 BKN030 06/M01 Q1001
TAF
TAF BGJN 221717Z 2218/2224 20007KT 9999 BKN035 TEMPO 2218/2221 4000 -RA BR BKN014
Forecast at BGJN
18:00 22-08-17 to 00:00 23-08-17
Wind:7 Knots from 200°
Visibility:6.21 statute miles
3500BKN Broken
TEMPO 18:00 22-08-17 to 21:00 22-08-17
-RA BR
Visibility:2.49 statute miles
1400BKN Broken